Oakdale, Kentucky
Current Conditions -  °F | °C
As of 1:17 AM on Monday 22 Dec 2014 (Local Time) from KPAH Reporting Station
Overcast Overcast  
Wind Chill: 38°   Ceiling: 2500
Heat Index: 41°   Visibility: 10mi
Dew Point: 33°   Wind: 5mph
Humidity: 73%   Direction: 130°SE
Pressure: 29.94"   Gusts: NA
Location:  37.0331°N, 88.716°W
Report Text: KPAH 220717Z AUTO 13004KT 10SM BKN025 OVC075 05/01 A2994 RMK AO2 T00500006
Loading
Personal Weather Stations






























Interactive Weather Map New forecast layout! Learn more

10-Day Weather Forecast

Advertisements
Track Severe Weather on mobile